Map

Track Data

SID SEASON NUMBER BASIN SUBBASIN NAME ISO_TIME NATURE LAT LON WMO_WIND WMO_PRES WMO_AGENCY TRACK_TYPE DIST2LAND LANDFALL IFLAG USA_AGENCY USA_ATCF_ID USA_LAT USA_LON USA_RECORD USA_STATUS USA_WIND USA_PRES USA_SSHS USA_R34_NE USA_R34_SE USA_R34_SW USA_R34_NW USA_R50_NE USA_R50_SE USA_R50_SW USA_R50_NW USA_R64_NE USA_R64_SE USA_R64_SW USA_R64_NW USA_POCI USA_ROCI USA_RMW USA_EYE TOKYO_LAT TOKYO_LON TOKYO_GRADE TOKYO_WIND TOKYO_PRES TOKYO_R50_DIR TOKYO_R50_LONG TOKYO_R50_SHORT TOKYO_R30_DIR TOKYO_R30_LONG TOKYO_R30_SHORT TOKYO_LAND CMA_LAT CMA_LON CMA_CAT CMA_WIND CMA_PRES HKO_LAT HKO_LON HKO_CAT HKO_WIND HKO_PRES NEWDELHI_LAT NEWDELHI_LON NEWDELHI_GRADE NEWDELHI_WIND NEWDELHI_PRES NEWDELHI_CI NEWDELHI_DP NEWDELHI_POCI REUNION_LAT REUNION_LON REUNION_TYPE REUNION_WIND REUNION_PRES REUNION_TNUM REUNION_CI REUNION_RMW REUNION_R34_NE REUNION_R34_SE REUNION_R34_SW REUNION_R34_NW REUNION_R50_NE REUNION_R50_SE REUNION_R50_SW REUNION_R50_NW REUNION_R64_NE REUNION_R64_SE REUNION_R64_SW REUNION_R64_NW BOM_LAT BOM_LON BOM_TYPE BOM_WIND BOM_PRES BOM_TNUM BOM_CI BOM_RMW BOM_R34_NE BOM_R34_SE BOM_R34_SW BOM_R34_NW BOM_R50_NE BOM_R50_SE BOM_R50_SW BOM_R50_NW BOM_R64_NE BOM_R64_SE BOM_R64_SW BOM_R64_NW BOM_ROCI BOM_POCI BOM_EYE BOM_POS_METHOD BOM_PRES_METHOD NADI_LAT NADI_LON NADI_CAT NADI_WIND NADI_PRES WELLINGTON_LAT WELLINGTON_LON WELLINGTON_WIND WELLINGTON_PRES DS824_LAT DS824_LON DS824_STAGE DS824_WIND DS824_PRES TD9636_LAT TD9636_LON TD9636_STAGE TD9636_WIND TD9636_PRES TD9635_LAT TD9635_LON TD9635_WIND TD9635_PRES TD9635_ROCI NEUMANN_LAT NEUMANN_LON NEUMANN_CLASS NEUMANN_WIND NEUMANN_PRES MLC_LAT MLC_LON MLC_CLASS MLC_WIND MLC_PRES USA_GUST BOM_GUST BOM_GUST_PER REUNION_GUST REUNION_GUST_PER USA_SEAHGT USA_SEARAD_NE USA_SEARAD_SE USA_SEARAD_SW USA_SEARAD_NW STORM_SPEED STORM_DIR
1978044S14075 1978 13 SI MM JACQUELINE 1978-02-13 06:00:00 TS -14.0000 75.0000 24 1000 reunion spur-split 1957 1957 _____O______O_ -1 -14.0000 75.0000 2 24 1000 2.00000 2.00000 -14.0000 75.0000 TC 30 1000 10 65
1978044S14075 1978 13 SI MM JACQUELINE 1978-02-13 09:00:00 TS -13.7925 75.4501 spur-split 2015 2015 _____P______P_ -1 -13.7852 75.4577 2 -13.7852 75.4577 TC 35 10 65
1978044S14075 1978 13 SI MM JACQUELINE 1978-02-13 12:00:00 TS -13.6000 75.9000 reunion spur-split 2064 2064 _____O______O_ -1 -13.6000 75.9000 99 9.90000 -13.6000 75.9000 TC 40 9 69
1978044S14075 1978 13 SI MM JACQUELINE 1978-02-13 15:00:00 TS -13.4699 76.3149 spur-split 2108 2108 _____P______P_ -1 -13.4699 76.3149 99 -13.4699 76.3149 TC 42 8 76
1978044S14075 1978 13 SI MM JACQUELINE 1978-02-13 18:00:00 TS -13.4000 76.7000 reunion spur-split 2152 2152 _____O______O_ -1 -13.4000 76.7000 99 9.90000 -13.4000 76.7000 TC 45 7 80
1978044S14075 1978 13 SI MM JACQUELINE 1978-02-13 21:00:00 TS -13.3399 77.0651 spur-split 2185 2183 _____P______P_ -1 -13.3399 77.0651 99 -13.3399 77.0651 TC 42 7 90
1978044S14075 1978 13 SI MM JACQUELINE 1978-02-14 00:00:00 TS -13.4000 77.4000 reunion spur-split 2191 2189 _____O______O_ -1 -13.4000 77.4000 99 9.90000 -13.4000 77.4000 TC 40 8 114
1978044S14075 1978 13 SI MM JACQUELINE 1978-02-14 03:00:00 TS -13.6475 77.7746 spur-split 2206 2206 _____P______P_ -1 -13.6475 77.7746 99 -13.6475 77.7746 TC 40 8 136
1978044S14075 1978 13 SI MM JACQUELINE 1978-02-14 06:00:00 TS -14.0000 78.0000 20 reunion spur-split 2247 2241 _____O______O_ -1 -14.0000 78.0000 2 20 1.00000 1.00000 -14.0000 78.0000 TC 40 7 167
1978044S14075 1978 13 SI MM JACQUELINE 1978-02-14 09:00:00 TS -14.3724 77.9477 spur-split 2231 2199 _____P______P_ -1 -14.3724 77.9477 2 -14.3724 77.9477 TC 40 8 203
1978044S14075 1978 13 SI MM JACQUELINE 1978-02-14 12:00:00 TS -14.7000 77.7000 reunion spur-split 2199 2161 _____O______O_ -1 -14.7000 77.7000 99 9.90000 -14.7000 77.7000 TC 40 8 227
1978044S14075 1978 13 SI MM JACQUELINE 1978-02-14 15:00:00 TS -14.9026 77.3651 spur-split 2161 2117 _____P______P_ -1 -14.9026 77.3651 99 -14.9026 77.3651 TC 40 7 246
1978044S14075 1978 13 SI MM JACQUELINE 1978-02-14 18:00:00 TS -15.0000 77.0000 reunion spur-split 2117 2087 _____O______O_ -1 -15.0000 77.0000 99 9.90000 -15.0000 77.0000 TC 40 6 259
1978044S14075 1978 13 SI MM JACQUELINE 1978-02-14 21:00:00 TS -15.0224 76.7349 spur-split 2087 2066 _____P______P_ -1 -15.0224 76.7349 99 -15.0224 76.7349 TC 40 5 270
1978044S14075 1978 13 SI MM JACQUELINE 1978-02-15 00:00:00 TS -15.0000 76.5000 reunion spur-split 2066 2036 _____O______O_ -1 -15.0000 76.5000 99 9.90000 -15.0000 76.5000 TC 40 5 272
1978044S14075 1978 13 SI MM JACQUELINE 1978-02-15 03:00:00 TS -15.0075 76.2275 spur-split 2036 2016 _____P______P_ -1 -15.0075 76.2275 99 -15.0075 76.2275 TC 35 5 270
1978044S14075 1978 13 SI MM JACQUELINE 1978-02-15 06:00:00 TS -15.0000 76.0000 24 1000 reunion spur-split 2016 2006 _____O______O_ -1 -15.0000 76.0000 2 24 1000 2.00000 2.00000 -15.0000 76.0000 TC 30 1000 3 278
1978044S14075 1978 13 SI MM JACQUELINE 1978-02-15 09:00:00 TS -14.9575 75.8775 spur-split 2006 1999 _____P______P_ -1 -14.9575 75.8775 2 -14.9575 75.8775 TC 35 2 297
1978044S14075 1978 13 SI MM JACQUELINE 1978-02-15 12:00:00 TS -14.9000 75.8000 reunion spur-split 1999 1989 _____O______O_ -1 -14.9000 75.8000 99 9.90000 -14.9000 75.8000 TC 40 2 305
1978044S14075 1978 13 SI MM JACQUELINE 1978-02-15 15:00:00 TS -14.8574 75.7300 spur-split 1989 1983 _____P______P_ -1 -14.8574 75.7300 99 -14.8574 75.7300 TC 42 2 297
1978044S14075 1978 13 SI MM JACQUELINE 1978-02-15 18:00:00 TS -14.8000 75.6000 reunion spur-split 1983 1947 _____O______O_ -1 -14.8000 75.6000 99 9.90000 -14.8000 75.6000 TC 45 5 287
1978044S14075 1978 13 SI MM JACQUELINE 1978-02-15 21:00:00 TS -14.7076 75.2098 spur-split 1947 1927 _____P______P_ -1 -14.7076 75.2098 99 -14.7076 75.2098 TC 45 6 289
1978044S14075 1978 13 SI MM JACQUELINE 1978-02-16 00:00:00 TS -14.6000 75.0000 reunion spur-split 1931 1931 _____O______O_ -1 -14.6000 75.0000 99 9.90000 -14.6000 75.0000 TC 45 3 37
1978044S14075 1978 13 SI MM JACQUELINE 1978-02-16 03:00:00 TS -14.4554 75.4029 spur-split 1975 1975 _____P______P_ -1 -14.4554 75.4029 99 -14.4554 75.4029 TC 40 10 78
1978044S14075 1978 13 SI MM JACQUELINE 1978-02-16 06:00:00 TS -14.4000 76.0000 28 997 reunion spur-split 2040 2040 _____O______O_ -1 -14.4000 76.0000 2 28 997 2.50000 2.50000 -14.4000 76.0000 TC 35 997 10 95
1978044S14075 1978 13 SI MM JACQUELINE 1978-02-16 09:00:00 TS -14.5400 76.4172 spur-split 2076 2072 _____P______P_ -1 -14.5400 76.4172 2 -14.5400 76.4172 TC 40 8 121
1978044S14075 1978 13 SI MM JACQUELINE 1978-02-16 12:00:00 TS -14.8000 76.7000 reunion spur-split 2094 2090 _____O______O_ -1 -14.8000 76.7000 99 9.90000 -14.8000 76.7000 TC 45 6 145
1978044S14075 1978 13 SI MM JACQUELINE 1978-02-16 15:00:00 TS -15.0549 76.7877 spur-split 2093 2083 _____P______P_ -1 -15.0549 76.7877 99 -15.0549 76.7877 TC 42 6 171
1978044S14075 1978 13 SI MM JACQUELINE 1978-02-16 18:00:00 TS -15.4000 76.8000 reunion spur-split 2083 2076 _____O______O_ -1 -15.4000 76.8000 99 9.90000 -15.4000 76.8000 TC 40 8 171
1978044S14075 1978 13 SI MM JACQUELINE 1978-02-16 21:00:00 TS -15.8625 76.9074 spur-split 2076 2070 _____P______P_ -1 -15.8625 76.9074 99 -15.8625 76.9074 TC 40 10 169
1978044S14075 1978 13 SI MM JACQUELINE 1978-02-17 00:00:00 TS -16.4000 77.0000 reunion spur-split 2071 2057 _____O______O_ -1 -16.4000 77.0000 99 9.90000 -16.4000 77.0000 TC 40 11 175
1978044S14075 1978 13 SI MM JACQUELINE 1978-02-17 03:00:00 TS -16.9500 77.0077 spur-split 2057 2042 _____P______P_ -1 -16.9500 77.0077 99 -16.9500 77.0077 TC 40 11 180
1978044S14075 1978 13 SI MM JACQUELINE 1978-02-17 06:00:00 TS -17.5000 77.0000 reunion spur-split 2042 2031 _____O______O_ -1 -17.5000 77.0000 6 9.90000 -17.5000 77.0000 TC 40 11 179
1978044S14075 1978 13 SI MM JACQUELINE 1978-02-17 09:00:00 TS -18.0150 77.0276 spur-split 2031 2028 _____P______P_ -1 -18.0150 77.0276 6 -18.0150 77.0276 TC 40 10 174
1978044S14075 1978 13 SI MM JACQUELINE 1978-02-17 12:00:00 TS -18.5000 77.1000 reunion spur-split 2033 2029 _____O______O_ -1 -18.5000 77.1000 99 9.90000 -18.5000 77.1000 TC 40 10 169
1978044S14075 1978 13 SI MM JACQUELINE 1978-02-17 15:00:00 TS -18.9800 77.2275 spur-split 2035 2035 _____P______P_ -1 -18.9800 77.2275 99 -18.9800 77.2275 TC 40 9 163
1978044S14075 1978 13 SI MM JACQUELINE 1978-02-17 18:00:00 TS -19.4000 77.4000 reunion spur-split 2051 2049 _____O______O_ -1 -19.4000 77.4000 99 9.90000 -19.4000 77.4000 TC 40 8 156
1978044S14075 1978 13 SI MM JACQUELINE 1978-02-17 21:00:00 TS -19.6924 77.5704 spur-split 2068 2067 _____P______P_ -1 -19.6924 77.5704 99 -19.6924 77.5704 TC 40 7 148
1978044S14075 1978 13 SI MM JACQUELINE 1978-02-18 00:00:00 TS -20.0000 77.8000 reunion spur-split 2086 2086 _____O______O_ -1 -20.0000 77.8000 99 9.90000 -20.0000 77.8000 TC 40 10 147
1978044S14075 1978 13 SI MM JACQUELINE 1978-02-18 03:00:00 TS -20.5226 78.1419 spur-split 2114 2114 _____P______P_ -1 -20.5226 78.1419 99 -20.5226 78.1419 TC 35 12 147
1978044S14075 1978 13 SI MM JACQUELINE 1978-02-18 06:00:00 TS -21.0000 78.5000 24 1000 reunion spur-split 2153 2153 _____O______O_ -1 -21.0000 78.5000 2 24 1000 2.00000 2.00000 -21.0000 78.5000 TC 30 1000 9 142
1978044S14075 1978 13 SI MM JACQUELINE 1978-02-18 09:00:00 TS -21.2247 78.7353 spur-split 2173 2173 _____P______P_ -1 -21.2247 78.7353 2 -21.2247 78.7353 TC 37 6 123
1978044S14075 1978 13 SI MM JACQUELINE 1978-02-18 12:00:00 TS -21.3000 79.0000 reunion spur-split 2204 2204 _____O______O_ -1 -21.3000 79.0000 99 9.90000 -21.3000 79.0000 TC 45 6 95
1978044S14075 1978 13 SI MM JACQUELINE 1978-02-18 15:00:00 TS -21.2851 79.4205 spur-split 2245 2245 _____P______P_ -1 -21.2851 79.4205 99 -21.2851 79.4205 TC 47 8 90
1978044S14075 1978 13 SI MM JACQUELINE 1978-02-18 18:00:00 TS -21.3000 79.9000 reunion spur-split 2297 2297 _____O______O_ -1 -21.3000 79.9000 99 9.90000 -21.3000 79.9000 TC 50 9 111
1978044S14075 1978 13 SI MM JACQUELINE 1978-02-18 21:00:00 TS -21.6250 80.3639 spur-split 2348 2348 _____P______P_ -1 -21.6250 80.3639 99 -21.6250 80.3639 TC 50 10 121
1978044S14075 1978 13 SI MM JACQUELINE 1978-02-19 00:00:00 TS -21.8000 80.8000 spur-split 2390 2390 _____O______O_ -1 -21.8000 80.8000 99 9.90000 -21.8000 80.8000 TC 50 8 72
1978044S14075 1978 13 SI MM JACQUELINE 1978-02-19 03:00:00 TS -21.3824 81.1809 spur-split 2432 2432 _____P______P_ -1 -21.3824 81.1809 99 -21.3824 81.1809 TC 47 12 33
1978044S14075 1978 13 SI MM JACQUELINE 1978-02-19 06:00:00 TS -20.8000 81.5000 spur-split 2465 2465 _____O______O_ -1 -20.8000 81.5000 3 36 991 3.00000 3.00000 -20.8000 81.5000 TC 45 991 11 31
1978044S14075 1978 13 SI MM JACQUELINE 1978-02-19 09:00:00 TS -20.4475 81.7873 spur-split 2499 2499 _____P______P_ -1 -20.4475 81.7873 3 -20.4475 81.7873 TC 50 8 38
1978044S14075 1978 13 SI MM JACQUELINE 1978-02-19 12:00:00 TS -20.2000 82.0000 spur-split 2522 2522 _____O______O_ -1 -20.2000 82.0000 99 9.90000 -20.2000 82.0000 TC 55 5 36
1978044S14075 1978 13 SI MM JACQUELINE 1978-02-19 15:00:00 TS -20.0349 82.1073 spur-split 2534 2534 _____P______P_ -1 -20.0349 82.1073 99 -20.0349 82.1073 TC 55 4 32
1978044S14075 1978 13 SI MM JACQUELINE 1978-02-19 18:00:00 TS -19.9000 82.2000 spur-split 2545 2545 _____O______O_ -1 -19.9000 82.2000 99 9.90000 -19.9000 82.2000 TC 55 4 41
1978044S14075 1978 13 SI MM JACQUELINE 1978-02-19 21:00:00 TS -19.7151 82.4076 spur-split 2568 2568 _____P______P_ -1 -19.7151 82.4076 99 -19.7151 82.4076 TC 55 6 43
1978044S14075 1978 13 SI MM JACQUELINE 1978-02-20 00:00:00 TS -19.5000 82.6000 spur-split 2591 2591 _____O______O_ -1 -19.5000 82.6000 99 9.90000 -19.5000 82.6000 TC 55 6 39
1978044S14075 1978 13 SI MM JACQUELINE 1978-02-20 03:00:00 TS -19.2871 82.7706 spur-split 2615 2607 _____P______P_ -1 -19.2871 82.7706 99 -19.2871 82.7706 TC 50 5 11
1978044S14075 1978 13 SI MM JACQUELINE 1978-02-20 06:00:00 TS -19.0000 82.7000 spur-split 2609 2575 _____O______O_ -1 -19.0000 82.7000 3 36 991 3.00000 3.00000 -19.0000 82.7000 TC 45 991 10 330
1978044S14075 1978 13 SI MM JACQUELINE 1978-02-20 09:00:00 TS -18.4597 82.2555 spur-split 2575 2498 _____P______P_ -1 -18.4597 82.2555 3 -18.4597 82.2555 TC 45 15 308
1978044S14075 1978 13 SI MM JACQUELINE 1978-02-20 12:00:00 TS -18.1000 81.5000 spur-split 2498 2401 _____O______O_ -1 -18.1000 81.5000 99 9.90000 -18.1000 81.5000 TC 45 16 277
1978044S14075 1978 13 SI MM JACQUELINE 1978-02-20 15:00:00 TS -18.2775 80.5826 spur-split 2401 2288 _____P______P_ -1 -18.2775 80.5826 99 -18.2775 80.5826 TC 40 20 250
1978044S14075 1978 13 SI MM JACQUELINE 1978-02-20 18:00:00 TS -18.8000 79.5000 reunion spur-split 2278 2155 _____O______O_ -1 -18.8000 79.5000 99 9.90000 -18.8000 79.5000 TC 35 24 242
1978044S14075 1978 13 SI MM JACQUELINE 1978-02-20 21:00:00 TS -19.4174 78.3646 spur-split 2155 2032 _____P______P_ -1 -19.4174 78.3646 99 -19.4174 78.3646 TC 32 26 237
1978044S14075 1978 13 SI MM JACQUELINE 1978-02-21 00:00:00 TS -20.2000 77.2000 reunion spur-split 2022 1904 _____O______O_ -1 -20.2000 77.2000 99 9.90000 -20.2000 77.2000 TC 30 27 232
1978044S14075 1978 13 SI MM JACQUELINE 1978-02-21 03:00:00 TS -21.0785 76.0851 spur-split 1904 1802 _____P______P_ -1 -21.0785 76.0851 99 -21.0785 76.0851 TC 30 27 229
1978044S14075 1978 13 SI MM JACQUELINE 1978-02-21 06:00:00 TS -22.0000 75.0000 reunion spur-split 1792 _____O______O_ -1 -22.0000 75.0000 99 9.90000 -22.0000 75.0000 TC 30 27 228

About IBTrACS Database

This database is a web-friendly format of International Best Track Archive for Climate Stewardship (IBTrACS), a global best track data archive curated by NOAA dating back to 1842.

Updated: 2021-10-27